Impacts TAF Board
For situational awareness. Not to be used for flight planning purposes.
IDs:

KDRT - Del Rio Intl, TX, US

Issued at 1720 UTC 02 Oct 2022
Updated at 2243 UTC 02 Oct 2022
Potential Impact None Slight Moderate High
Time2153Z 02/23Z 03/00Z 03/01Z 03/02Z 03/03Z 03/04Z 03/05Z 03/06Z 03/07Z 03/08Z 03/09Z 03/10Z 03/11Z>>
Type OBS PRVL PRVL PRVL PRVL PRVL PRVL PRVL PRVL PRVL PRVL PRVL PRVL PRVL
VIS 10 >6 >6 >6 >6 >6 >6 >6 >6 >6 >6 >6 >6 >6
CIG -- 250 250 250 250 250 250 250 250 250 250 250 250 250
Cover CLR BKN BKN BKN BKN BKN BKN BKN BKN BKN BKN BKN BKN BKN
FltCat VFR VFR VFR VFR VFR VFR VFR VFR VFR VFR VFR VFR VFR VFR
WX -- -- -- -- -- -- -- -- -- -- -- -- -- --
WDir 110 140 140 140 110 110 110 110 110 110 110 110 110 110
WSpd 9 11 11 11 5 5 5 5 5 5 5 5 5 5
WGst -- -- -- -- -- -- -- -- -- -- -- -- -- --
WSHgt -- -- -- -- -- -- -- -- -- -- -- -- -- --
WSDir -- -- -- -- -- -- -- -- -- -- -- -- -- --
WSSpd -- -- -- -- -- -- -- -- -- -- -- -- -- --
R13/31
XWnd 5 0 0 0 3 3 3 3 3 3 3 3 3 3
HWnd 8 11 11 11 4 4 4 4 4 4 4 4 4 4
Raw TAF
KDRT 021720Z 0218/0318 14011KT P6SM BKN250
  FM030200 11005KT P6SM BKN250
  FM031600 13008KT P6SM SCT250


Raw METAR
KDRT 022153Z AUTO 11009KT 10SM CLR 28/11 A3010 RMK AO2 SLP184 T02780111
KDRT 022053Z AUTO VRB04KT 10SM CLR 27/12 A3010 RMK AO2 SLP184 T02720122 56019
KDRT 021953Z AUTO 16007KT 10SM CLR 26/12 A3011 RMK AO2 SLP188 T02610122

METAR Board
Radar Display
Forecast Discussion
For situational awareness. Not to be used for flight planning purposes.